createdAt,value
2017-05-31T00:01:06.182Z,10.34
2017-05-31T00:03:40.314Z,12.44
2017-05-31T00:06:14.569Z,9.46
2017-05-31T00:08:48.783Z,12.04
2017-05-31T00:11:22.940Z,9.94
2017-05-31T00:13:57.098Z,13.32
2017-05-31T00:16:31.305Z,15.34
2017-05-31T00:19:05.485Z,9.38
2017-05-31T00:21:39.644Z,10.44
2017-05-31T00:24:13.727Z,9.70
2017-05-31T00:26:47.950Z,11.36
2017-05-31T00:29:22.065Z,9.94
2017-05-31T00:31:56.129Z,11.42
2017-05-31T00:34:30.274Z,10.70
2017-05-31T00:37:04.499Z,12.02
2017-05-31T00:39:38.781Z,14.32
2017-05-31T00:42:12.925Z,10.16
2017-05-31T00:44:47.082Z,10.78
2017-05-31T00:47:21.304Z,11.02
2017-05-31T00:49:55.527Z,11.54
2017-05-31T00:52:29.697Z,10.82
2017-05-31T00:55:03.843Z,11.62
2017-05-31T00:57:38.012Z,11.00
2017-05-31T01:00:12.105Z,11.70
2017-05-31T01:02:46.308Z,16.40
2017-05-31T01:05:20.476Z,11.10
2017-05-31T01:07:54.680Z,11.18
2017-05-31T01:10:28.836Z,13.18
2017-05-31T01:13:03.050Z,11.20
2017-05-31T01:15:37.310Z,10.98
2017-05-31T01:18:11.485Z,11.80
2017-05-31T01:20:45.633Z,10.36
2017-05-31T01:23:19.856Z,11.78
2017-05-31T01:25:54.009Z,13.08
2017-05-31T01:28:28.125Z,10.60
2017-05-31T01:31:02.353Z,12.20
2017-05-31T01:33:36.536Z,10.46
2017-05-31T01:36:10.567Z,11.30
2017-05-31T01:38:45.993Z,11.86
2017-05-31T01:41:20.036Z,10.88
2017-05-31T01:43:54.313Z,12.72
2017-05-31T01:46:28.326Z,11.18
2017-05-31T01:49:02.396Z,12.06
2017-05-31T01:51:36.604Z,11.50
2017-05-31T01:54:11.389Z,11.56
2017-05-31T01:56:45.458Z,11.00
2017-05-31T01:59:19.634Z,11.18
2017-05-31T02:01:53.800Z,11.00
2017-05-31T02:04:28.714Z,10.98
2017-05-31T02:07:02.816Z,12.92
2017-05-31T02:09:36.877Z,11.44
2017-05-31T02:12:11.118Z,10.46
2017-05-31T02:14:45.286Z,13.02
2017-05-31T02:17:19.488Z,10.42
2017-05-31T02:19:53.625Z,10.58
2017-05-31T02:22:28.026Z,10.22
2017-05-31T02:25:02.208Z,10.78
2017-05-31T02:27:36.356Z,12.80
2017-05-31T02:30:10.482Z,11.00
2017-05-31T02:32:44.916Z,9.98
2017-05-31T02:35:18.977Z,10.84
2017-05-31T02:37:53.176Z,11.38
2017-05-31T02:40:27.430Z,11.04
2017-05-31T02:43:01.628Z,9.34
2017-05-31T02:45:35.785Z,10.36
2017-05-31T02:48:10.049Z,10.08
2017-05-31T02:50:44.141Z,9.78
2017-05-31T02:53:18.236Z,12.02
2017-05-31T02:55:52.357Z,10.10
2017-05-31T02:58:26.586Z,10.00
2017-05-31T03:01:02.192Z,9.92
2017-05-31T03:03:36.385Z,9.88
2017-05-31T03:06:10.400Z,9.74
2017-05-31T03:08:44.552Z,10.18
2017-05-31T03:11:18.757Z,10.00
2017-05-31T03:13:53.066Z,9.34
2017-05-31T03:16:27.280Z,9.74
2017-05-31T03:19:01.485Z,9.16
2017-05-31T03:21:35.881Z,12.20
2017-05-31T03:24:10.196Z,8.96
2017-05-31T03:26:44.481Z,12.72
2017-05-31T03:29:18.697Z,10.24
2017-05-31T03:31:52.865Z,9.80
2017-05-31T03:34:27.028Z,9.98
2017-05-31T03:37:01.099Z,9.57
2017-05-31T03:39:35.189Z,9.80
2017-05-31T03:42:09.354Z,10.28
2017-05-31T03:44:43.378Z,9.80
2017-05-31T03:47:17.466Z,9.78
2017-05-31T03:49:51.817Z,9.70
2017-05-31T03:52:25.950Z,8.90
2017-05-31T03:55:00.032Z,9.42
2017-05-31T03:57:34.273Z,8.74
2017-05-31T04:00:08.421Z,9.48
2017-05-31T04:02:42.520Z,9.22
2017-05-31T04:05:16.901Z,9.50
2017-05-31T04:07:52.030Z,9.32
2017-05-31T04:10:26.128Z,11.94
2017-05-31T04:13:00.322Z,9.80
2017-05-31T04:15:34.740Z,9.24
2017-05-31T04:18:08.845Z,8.60
2017-05-31T04:20:42.997Z,7.80
2017-05-31T04:23:17.187Z,8.86
2017-05-31T04:25:51.362Z,8.62
2017-05-31T04:28:25.552Z,8.38
2017-05-31T04:30:59.745Z,9.48
2017-05-31T04:33:33.927Z,7.94
2017-05-31T04:36:08.112Z,14.58
2017-05-31T04:38:43.428Z,8.74
2017-05-31T04:41:17.711Z,8.22
2017-05-31T04:43:51.960Z,8.44
2017-05-31T04:46:26.109Z,8.42
2017-05-31T04:49:00.338Z,8.38
2017-05-31T04:51:34.476Z,8.22
2017-05-31T04:54:08.699Z,9.96
2017-05-31T04:56:42.915Z,10.88
2017-05-31T04:59:17.087Z,7.78
2017-05-31T05:01:53.833Z,9.79
2017-05-31T05:04:28.049Z,7.14
2017-05-31T05:07:02.416Z,7.46
2017-05-31T05:09:36.596Z,9.86
2017-05-31T05:12:10.696Z,8.50
2017-05-31T05:14:45.230Z,8.12
2017-05-31T05:17:19.328Z,8.10
2017-05-31T05:19:53.400Z,8.34
2017-05-31T05:22:27.587Z,7.78
2017-05-31T05:25:01.756Z,9.98
2017-05-31T05:27:35.953Z,7.24
2017-05-31T05:30:10.018Z,12.96
2017-05-31T05:32:44.148Z,7.64
2017-05-31T05:35:18.290Z,8.68
2017-05-31T05:37:52.400Z,12.86
2017-05-31T05:40:26.551Z,8.96
2017-05-31T05:43:00.612Z,8.40
2017-05-31T05:45:34.788Z,9.40
2017-05-31T05:48:08.825Z,9.52
2017-05-31T05:50:42.942Z,10.12
2017-05-31T05:53:17.032Z,9.46
2017-05-31T05:55:51.087Z,16.44
2017-05-31T05:58:25.515Z,9.74
2017-05-31T06:01:01.066Z,8.14
2017-05-31T06:03:35.121Z,11.28
2017-05-31T06:06:09.321Z,7.72
2017-05-31T06:08:43.482Z,7.96
2017-05-31T06:11:18.012Z,8.72
2017-05-31T06:13:52.219Z,7.32
2017-05-31T06:16:26.354Z,7.78
2017-05-31T06:19:00.713Z,6.98
2017-05-31T06:21:34.997Z,7.44
2017-05-31T06:24:09.562Z,7.38
2017-05-31T06:26:43.878Z,8.06
2017-05-31T06:29:18.129Z,6.08
2017-05-31T06:31:52.238Z,5.94
2017-05-31T06:34:26.325Z,6.50
2017-05-31T06:37:00.425Z,6.20
2017-05-31T06:39:34.593Z,5.80
2017-05-31T06:42:08.671Z,5.76
2017-05-31T06:44:42.730Z,5.42
2017-05-31T06:47:16.865Z,5.52
2017-05-31T06:49:51.001Z,5.54
2017-05-31T06:52:25.145Z,6.68
2017-05-31T06:54:59.232Z,5.38
2017-05-31T06:57:33.449Z,5.98
2017-05-31T07:00:07.519Z,5.88
2017-05-31T07:02:41.664Z,6.30
2017-05-31T07:05:15.789Z,5.52
2017-05-31T07:07:49.964Z,7.58
2017-05-31T07:10:24.156Z,5.98
2017-05-31T07:12:58.221Z,6.14
2017-05-31T07:15:32.469Z,5.76
2017-05-31T07:18:06.726Z,6.00
2017-05-31T07:20:40.921Z,5.80
2017-05-31T07:23:15.009Z,5.52
2017-05-31T07:25:49.404Z,6.18
2017-05-31T07:28:23.524Z,7.08
2017-05-31T07:30:57.593Z,6.28
2017-05-31T07:33:31.881Z,7.12
2017-05-31T07:36:06.057Z,6.10
2017-05-31T07:38:40.393Z,6.60
2017-05-31T07:41:14.622Z,5.76
2017-05-31T07:43:48.773Z,6.70
2017-05-31T07:46:50.086Z,7.02
2017-05-31T07:49:24.281Z,6.28
2017-05-31T07:51:58.402Z,7.34
2017-05-31T07:54:32.548Z,7.32
2017-05-31T07:57:06.596Z,6.84
2017-05-31T07:59:40.768Z,6.50
2017-05-31T08:02:14.883Z,6.74
2017-05-31T08:04:48.896Z,6.74
2017-05-31T08:07:23.066Z,7.14
2017-05-31T08:09:57.114Z,6.70
2017-05-31T08:12:31.243Z,6.90
2017-05-31T08:15:05.469Z,7.44
2017-05-31T08:17:39.726Z,6.26
2017-05-31T08:20:13.951Z,6.74
2017-05-31T08:22:48.200Z,7.32
2017-05-31T08:25:22.417Z,7.08
2017-05-31T08:27:56.493Z,7.66
2017-05-31T08:30:30.757Z,7.46
2017-05-31T08:33:04.976Z,7.28
2017-05-31T08:35:39.042Z,7.96
2017-05-31T08:38:13.078Z,7.54
2017-05-31T08:40:47.228Z,7.76
2017-05-31T08:43:21.581Z,8.16
2017-05-31T08:45:55.582Z,8.32
2017-05-31T08:48:29.744Z,7.14
2017-05-31T08:51:04.089Z,7.50
2017-05-31T08:53:38.241Z,7.92
2017-05-31T08:56:12.366Z,7.52
2017-05-31T08:58:46.728Z,8.16
2017-05-31T09:01:20.925Z,7.44
2017-05-31T09:03:54.990Z,8.00
2017-05-31T09:06:29.072Z,9.00
2017-05-31T09:09:03.449Z,12.64
2017-05-31T09:11:37.633Z,8.08
2017-05-31T09:14:11.866Z,8.34
2017-05-31T09:16:46.098Z,7.82
2017-05-31T09:19:20.317Z,8.28
2017-05-31T09:21:54.586Z,8.06
2017-05-31T09:24:29.752Z,7.70
2017-05-31T09:27:03.828Z,7.96
2017-05-31T09:29:37.980Z,8.58
2017-05-31T09:32:12.114Z,8.38
2017-05-31T09:34:46.220Z,8.52
2017-05-31T09:37:20.345Z,8.52
2017-05-31T09:39:54.529Z,8.66
2017-05-31T09:42:28.650Z,8.82
2017-05-31T09:45:02.697Z,8.96
2017-05-31T09:47:36.891Z,11.48
2017-05-31T09:50:11.066Z,9.10
2017-05-31T09:52:45.261Z,8.72
2017-05-31T09:55:19.489Z,8.66
2017-05-31T09:57:53.535Z,9.42
2017-05-31T10:00:27.732Z,8.48
2017-05-31T10:03:01.907Z,8.16
2017-05-31T10:05:36.015Z,8.22
2017-05-31T10:08:10.035Z,9.60
2017-05-31T10:10:44.335Z,9.06
2017-05-31T10:13:18.597Z,9.00
2017-05-31T10:15:52.707Z,8.72
2017-05-31T10:18:26.936Z,9.18
2017-05-31T10:21:01.072Z,9.92
2017-05-31T10:23:35.241Z,10.56
2017-05-31T10:26:09.404Z,9.72
2017-05-31T10:28:43.637Z,9.84
2017-05-31T10:31:17.910Z,10.36
2017-05-31T10:33:52.110Z,10.34
2017-05-31T10:36:26.324Z,9.76
2017-05-31T10:39:00.397Z,9.54
2017-05-31T10:41:34.489Z,9.74
2017-05-31T10:44:08.496Z,9.42
2017-05-31T10:46:42.625Z,9.60
2017-05-31T10:49:16.695Z,10.02
2017-05-31T10:51:50.721Z,10.06
2017-05-31T10:54:24.892Z,9.56
2017-05-31T10:56:58.881Z,8.98
2017-05-31T10:59:32.995Z,10.00
2017-05-31T11:02:07.439Z,9.22
2017-05-31T11:04:41.667Z,9.20
2017-05-31T11:07:15.825Z,9.56
2017-05-31T11:09:50.038Z,9.42
2017-05-31T11:12:24.339Z,9.18
2017-05-31T11:14:58.577Z,8.72
2017-05-31T11:17:32.747Z,9.62
2017-05-31T11:20:06.808Z,9.92
2017-05-31T11:22:41.193Z,9.70
2017-05-31T11:25:15.269Z,9.32
2017-05-31T11:27:49.433Z,8.76
2017-05-31T11:30:23.654Z,8.96
2017-05-31T11:32:57.933Z,8.92
2017-05-31T11:35:32.145Z,8.96
2017-05-31T11:38:06.160Z,8.32
2017-05-31T11:40:40.324Z,9.22
2017-05-31T11:43:14.573Z,9.04
2017-05-31T11:45:48.674Z,9.36
2017-05-31T11:48:22.873Z,9.20
2017-05-31T11:50:57.091Z,9.18
2017-05-31T11:53:31.286Z,9.24
2017-05-31T11:56:05.282Z,10.06
2017-05-31T11:58:39.441Z,9.80
2017-05-31T12:01:13.661Z,10.34
2017-05-31T12:03:47.809Z,8.86
2017-05-31T12:06:21.908Z,10.30
2017-05-31T12:08:55.933Z,10.08
2017-05-31T12:11:30.131Z,9.82
2017-05-31T12:14:04.292Z,10.10
2017-05-31T12:16:38.423Z,10.16
2017-05-31T12:19:12.527Z,9.78
2017-05-31T12:21:46.732Z,9.92
2017-05-31T12:24:20.911Z,9.54
2017-05-31T12:26:54.917Z,10.46
2017-05-31T12:29:29.213Z,10.34
2017-05-31T12:32:03.540Z,10.20
2017-05-31T12:34:37.598Z,10.38
2017-05-31T12:37:11.677Z,9.70
2017-05-31T12:39:45.786Z,10.02
2017-05-31T12:42:19.941Z,10.10
2017-05-31T12:44:54.193Z,9.96
2017-05-31T12:47:28.358Z,10.20
2017-05-31T12:50:02.485Z,10.26
2017-05-31T12:52:36.781Z,9.80
2017-05-31T12:55:10.854Z,10.06
2017-05-31T12:57:45.076Z,10.54
2017-05-31T13:00:19.336Z,10.40
2017-05-31T13:02:53.347Z,10.38
2017-05-31T13:05:27.432Z,9.94
2017-05-31T13:08:01.438Z,10.24
2017-05-31T13:10:35.604Z,10.60
2017-05-31T13:13:09.577Z,10.78
2017-05-31T13:15:43.728Z,10.32
2017-05-31T13:18:17.718Z,10.24
2017-05-31T13:20:51.815Z,10.18
2017-05-31T13:23:26.016Z,9.68
2017-05-31T13:26:01.112Z,9.70
2017-05-31T13:28:35.293Z,9.68
2017-05-31T13:31:09.300Z,10.50
2017-05-31T13:33:43.436Z,10.60
2017-05-31T13:36:17.582Z,10.28
2017-05-31T13:38:51.601Z,12.60
2017-05-31T13:41:25.705Z,11.14
2017-05-31T13:43:59.777Z,11.06
2017-05-31T13:46:34.109Z,9.66
2017-05-31T13:49:08.291Z,10.28
2017-05-31T13:51:42.284Z,9.86
2017-05-31T13:54:16.314Z,9.34
2017-05-31T13:56:50.533Z,8.52
2017-05-31T13:59:24.616Z,9.12
2017-05-31T14:01:58.605Z,8.78
2017-05-31T14:04:32.669Z,9.68
2017-05-31T14:07:06.659Z,8.62
2017-05-31T14:09:40.826Z,7.94
2017-05-31T14:12:27.945Z,8.92
2017-05-31T14:18:16.747Z,9.18
2017-05-31T14:20:50.795Z,9.72
2017-05-31T14:23:24.871Z,8.94
2017-05-31T14:25:58.876Z,9.64
2017-05-31T14:28:33.013Z,8.90
2017-05-31T14:31:07.045Z,10.16
2017-05-31T14:33:41.179Z,8.66
2017-05-31T14:36:29.128Z,8.88
2017-05-31T14:39:03.259Z,8.00
2017-05-31T14:41:37.420Z,7.14
2017-05-31T14:47:26.432Z,7.32
2017-05-31T14:50:00.528Z,7.40
2017-05-31T14:55:49.969Z,7.72
2017-05-31T14:58:24.179Z,9.66
2017-05-31T15:00:58.471Z,8.08
2017-05-31T15:03:32.581Z,7.48
2017-05-31T15:06:06.664Z,8.52
2017-05-31T15:08:41.026Z,7.50
2017-05-31T15:11:15.381Z,8.62
2017-05-31T15:13:49.535Z,7.94
2017-05-31T15:16:23.893Z,8.34
2017-05-31T15:18:58.155Z,8.60
2017-05-31T15:21:32.160Z,7.46
2017-05-31T15:24:19.636Z,7.96
2017-05-31T15:33:23.628Z,8.00
2017-05-31T15:35:57.624Z,8.80
2017-05-31T15:38:31.872Z,8.48
2017-05-31T15:41:05.922Z,8.80
2017-05-31T15:43:40.148Z,9.38
2017-05-31T15:46:14.200Z,14.06
2017-05-31T15:48:48.342Z,10.92
2017-05-31T15:51:22.560Z,9.40
2017-05-31T15:53:56.644Z,9.42
2017-05-31T15:56:30.825Z,10.88
2017-05-31T15:59:18.770Z,9.82
2017-05-31T16:01:52.865Z,10.80
2017-05-31T16:04:27.066Z,12.62
2017-05-31T16:07:01.148Z,10.74
2017-05-31T16:09:35.324Z,11.26
2017-05-31T16:15:24.400Z,11.00
2017-05-31T16:17:58.432Z,9.88
2017-05-31T16:20:32.540Z,10.60
2017-05-31T16:23:06.641Z,10.74
2017-05-31T16:25:40.763Z,9.94
2017-05-31T16:28:14.843Z,10.46
2017-05-31T16:37:19.234Z,10.16
2017-05-31T16:39:53.416Z,9.22
2017-05-31T16:42:27.590Z,9.18
2017-05-31T16:45:01.585Z,9.14
2017-05-31T16:47:35.800Z,9.12
2017-05-31T16:50:09.965Z,8.68
2017-05-31T16:55:59.161Z,9.20
2017-05-31T16:58:33.288Z,9.16
2017-05-31T17:01:07.320Z,10.08
2017-05-31T17:03:41.468Z,8.96
2017-05-31T17:06:15.710Z,9.22
2017-05-31T17:08:49.868Z,8.16
2017-05-31T17:11:24.137Z,9.00
2017-05-31T17:13:58.267Z,9.54
2017-05-31T17:16:32.388Z,9.16
2017-05-31T17:19:06.448Z,9.76
2017-05-31T17:21:40.514Z,9.10
2017-05-31T17:24:14.700Z,8.86
2017-05-31T17:26:48.805Z,8.76
2017-05-31T17:29:22.922Z,8.36
2017-05-31T17:32:09.889Z,8.62
2017-05-31T17:37:58.539Z,8.48
2017-05-31T17:40:32.681Z,7.44
2017-05-31T17:43:06.928Z,8.70
2017-05-31T17:45:41.062Z,6.30
2017-05-31T17:48:15.093Z,6.96
2017-05-31T17:54:04.512Z,6.80
2017-05-31T17:56:38.777Z,6.42
2017-05-31T17:59:12.813Z,6.42
2017-05-31T18:05:01.542Z,6.28
2017-05-31T18:07:35.723Z,6.84
2017-05-31T18:10:09.904Z,7.00
2017-05-31T18:15:58.504Z,14.40
2017-05-31T18:18:32.620Z,6.92
2017-05-31T18:21:06.838Z,7.70
2017-05-31T18:23:41.068Z,13.14
2017-05-31T18:26:15.140Z,11.94
2017-05-31T18:28:49.487Z,10.42
2017-05-31T18:31:23.711Z,8.78
2017-05-31T18:33:57.941Z,8.98
2017-05-31T18:36:32.082Z,8.90
2017-05-31T18:39:06.321Z,9.24
2017-05-31T18:41:53.916Z,8.70
2017-05-31T18:47:43.041Z,10.34
2017-05-31T18:50:17.236Z,9.84
2017-05-31T18:56:06.459Z,10.56
2017-05-31T18:58:40.539Z,10.24
2017-05-31T19:01:14.849Z,9.34
2017-05-31T19:03:49.023Z,9.86
2017-05-31T19:06:23.043Z,10.04
2017-05-31T19:08:57.196Z,9.74
2017-05-31T19:11:31.353Z,11.24
2017-05-31T19:14:05.402Z,10.30
2017-05-31T19:16:39.576Z,9.36
2017-05-31T19:19:15.290Z,10.44
2017-05-31T19:21:49.507Z,10.40
2017-05-31T19:24:37.131Z,10.36
2017-05-31T19:27:12.209Z,10.70
2017-05-31T19:29:46.473Z,9.82
2017-05-31T19:38:51.174Z,10.94
2017-05-31T19:41:25.375Z,11.32
2017-05-31T19:43:59.522Z,12.22
2017-05-31T19:46:33.736Z,11.22
2017-05-31T19:49:08.065Z,10.76
2017-05-31T19:51:42.196Z,11.26
2017-05-31T19:54:16.222Z,10.72
2017-05-31T19:56:50.555Z,12.46
2017-05-31T19:59:24.610Z,11.20
2017-05-31T20:01:58.944Z,12.20
2017-05-31T20:04:33.236Z,12.10
2017-05-31T20:07:07.349Z,11.48
2017-05-31T20:09:41.528Z,32.04
2017-05-31T20:12:28.852Z,11.76
2017-05-31T20:15:03.069Z,11.50
2017-05-31T20:17:37.217Z,11.64
2017-05-31T20:26:42.502Z,12.70
2017-05-31T20:29:16.990Z,12.08
2017-05-31T20:31:51.293Z,13.84
2017-05-31T20:34:48.872Z,11.76
2017-05-31T20:40:48.204Z,12.60
2017-05-31T20:43:23.942Z,12.92
2017-05-31T20:45:58.222Z,13.38
2017-05-31T20:48:32.547Z,11.66
2017-05-31T20:51:09.403Z,13.02
2017-05-31T20:53:46.071Z,11.68
2017-05-31T20:56:42.200Z,12.74
2017-05-31T20:59:27.243Z,13.38
2017-05-31T21:02:04.167Z,12.44
2017-05-31T21:04:42.261Z,11.62
2017-05-31T21:13:18.558Z,10.90
2017-05-31T21:15:54.292Z,11.14
2017-05-31T21:18:28.615Z,10.58
2017-05-31T21:21:03.558Z,12.88
2017-05-31T21:23:37.625Z,10.84
2017-05-31T21:26:12.470Z,11.76
2017-05-31T21:28:46.780Z,11.20
2017-05-31T21:31:21.140Z,10.06
2017-05-31T21:33:55.249Z,11.14
2017-05-31T21:36:29.542Z,12.00
2017-05-31T21:39:05.271Z,10.52
2017-05-31T21:41:39.438Z,11.02
2017-05-31T21:44:13.628Z,11.00
2017-05-31T21:46:48.865Z,10.60
2017-05-31T21:49:23.150Z,11.42
2017-05-31T21:51:57.378Z,10.72
2017-05-31T21:54:32.130Z,11.96
2017-05-31T21:57:06.281Z,10.86
2017-05-31T21:59:40.538Z,11.64
2017-05-31T22:02:14.597Z,11.62
2017-05-31T22:04:48.719Z,12.72
2017-05-31T22:07:23.082Z,12.40
2017-05-31T22:12:36.790Z,13.68
2017-05-31T22:15:11.216Z,13.12
2017-05-31T22:17:45.601Z,12.90
2017-05-31T22:20:19.733Z,12.76
2017-05-31T22:23:01.333Z,13.38
2017-05-31T22:25:36.191Z,14.04
2017-05-31T22:31:29.589Z,14.32
2017-05-31T22:34:03.874Z,13.70
2017-05-31T22:36:38.014Z,14.32
2017-05-31T22:39:12.256Z,14.30
2017-05-31T22:41:46.312Z,12.46
2017-05-31T22:44:20.464Z,12.36
2017-05-31T22:46:54.998Z,14.90
2017-05-31T22:49:36.261Z,13.72
2017-05-31T22:55:25.046Z,13.98
2017-05-31T22:57:59.186Z,14.16
2017-05-31T23:00:33.263Z,14.06
2017-05-31T23:03:07.489Z,14.74
2017-05-31T23:05:41.794Z,14.90
2017-05-31T23:08:15.972Z,15.18
2017-05-31T23:10:50.281Z,14.36
2017-05-31T23:13:24.509Z,13.98
2017-05-31T23:15:58.692Z,15.58
2017-05-31T23:18:32.967Z,14.84
2017-05-31T23:21:07.205Z,15.36
2017-05-31T23:23:41.564Z,15.64
2017-05-31T23:26:15.781Z,15.08
2017-05-31T23:28:49.969Z,14.34
2017-05-31T23:31:24.236Z,16.03
2017-05-31T23:33:58.453Z,16.14
2017-05-31T23:36:32.707Z,16.22
2017-05-31T23:39:06.818Z,13.98
2017-05-31T23:41:41.114Z,15.44
2017-05-31T23:44:15.193Z,14.84
2017-05-31T23:46:49.331Z,15.42
2017-05-31T23:49:23.481Z,13.76
2017-05-31T23:51:57.562Z,14.40
2017-05-31T23:54:31.555Z,14.70
2017-05-31T23:57:05.566Z,15.14
2017-05-31T23:59:39.664Z,15.82
